Marshallville, Kentucky
Current Conditions -  °F | °C
As of 4:53 PM on Friday 24 Oct 2014 (Local Time) from KJKL Reporting Station
Clear Clear  
Wind Chill: 17°   Ceiling: Unl
Heat Index: 17°   Visibility: 10mi
Dew Point:   Wind: 3mph
Humidity: 40%   Direction: NA
Pressure: 30.06"   Gusts: NA
Location:  37.76°N, 83.05°W
Report Text: KJKL 242053Z AUTO VRB03KT 10SM CLR 17/03 A3006 RMK AO2 SLP177 T01720033 56011
Loading
Personal Weather Stations






























Interactive Weather Map
Tropical Storm Tracking
New forecast layout! Learn more

10-Day Weather Forecast

Advertisements
Track Severe Weather on mobile